Time;durP1;ratioP1;P1;durP2;ratioP2;P2;SDS_P1;SDS_P2;PMS_P1;PMS_P2;Temp;Humidity;BMP_temperature;BMP_pressure;BME280_temperature;BME280_humidity;BME280_pressure;Samples;Min_cycle;Max_cycle;Signal;HPM_P1;HPM_P2
2021/08/01 00:02:03;;;;;;;7.63;4.10;;;16.50;99.90;;;;;;5041499;28;20037;-65
2021/08/01 00:04:30;;;;;;;11.20;4.95;;;16.40;99.90;;;;;;5034181;28;20045;-65
2021/08/01 00:06:55;;;;;;;7.25;4.00;;;16.30;99.90;;;;;;5042389;28;20025;-65
2021/08/01 00:09:21;;;;;;;7.35;4.22;;;16.20;99.90;;;;;;5045823;28;20168;-67
2021/08/01 00:11:46;;;;;;;7.50;4.15;;;16.10;99.90;;;;;;5045726;28;20033;-65
2021/08/01 00:14:12;;;;;;;10.23;5.10;;;15.90;99.90;;;;;;5053485;28;20036;-65
2021/08/01 00:16:38;;;;;;;7.28;4.07;;;15.80;99.90;;;;;;5054479;28;20406;-65
2021/08/01 00:19:03;;;;;;;6.78;4.43;;;15.70;99.90;;;;;;5053901;28;20029;-65
2021/08/01 00:21:31;;;;;;;10.60;4.60;;;15.60;99.90;;;;;;5044680;28;20080;-65
2021/08/01 00:23:56;;;;;;;8.40;5.28;;;15.50;99.90;;;;;;5034519;28;20033;-65
2021/08/01 00:26:22;;;;;;;9.57;5.55;;;15.40;99.90;;;;;;5042200;28;20504;-66
2021/08/01 00:28:48;;;;;;;8.25;5.45;;;15.40;99.90;;;;;;5053628;28;20067;-65
2021/08/01 00:31:13;;;;;;;9.50;4.90;;;15.30;99.90;;;;;;5046756;28;20467;-66
2021/08/01 00:33:39;;;;;;;10.48;5.38;;;15.20;99.90;;;;;;5035054;28;20067;-66
2021/08/01 00:36:05;;;;;;;8.80;5.35;;;15.10;99.90;;;;;;5033718;28;20104;-66
2021/08/01 00:38:30;;;;;;;8.30;5.32;;;15.10;99.90;;;;;;5033061;28;20045;-66
2021/08/01 00:40:56;;;;;;;11.70;6.10;;;15.00;99.90;;;;;;5037920;28;20057;-66
2021/08/01 00:43:22;;;;;;;9.65;5.65;;;15.00;99.90;;;;;;5033334;28;20156;-66
2021/08/01 00:45:48;;;;;;;9.98;5.80;;;15.00;99.90;;;;;;5032818;28;20040;-66
2021/08/01 00:48:14;;;;;;;10.57;5.70;;;15.00;99.90;;;;;;5033238;28;20068;-66
2021/08/01 00:50:42;;;;;;;10.50;5.13;;;14.90;99.90;;;;;;5034617;28;20041;-65
2021/08/01 00:53:09;;;;;;;12.77;5.97;;;14.90;99.90;;;;;;5053551;28;20025;-65
2021/08/01 00:55:35;;;;;;;11.98;5.93;;;14.90;99.90;;;;;;5052829;28;20029;-65
2021/08/01 00:58:01;;;;;;;8.93;5.40;;;14.90;99.90;;;;;;5053874;28;20021;-65
2021/08/01 01:00:53;;;;;;;7.97;5.47;;;14.80;99.90;;;;;;5052722;28;20032;-65
2021/08/01 01:03:25;;;;;;;10.30;5.35;;;14.80;99.90;;;;;;5012944;28;20045;-65
2021/08/01 01:06:00;;;;;;;16.52;5.50;;;14.80;99.90;;;;;;5013926;28;20030;-65
2021/08/01 01:08:37;;;;;;;5.80;5.10;;;14.80;99.90;;;;;;5030810;28;20179;-65
2021/08/01 01:11:05;;;;;;;9.98;5.70;;;14.80;99.90;;;;;;5032758;28;20413;-65
2021/08/01 01:13:39;;;;;;;6.45;5.22;;;14.70;99.90;;;;;;5032525;28;20068;-65
2021/08/01 01:16:05;;;;;;;6.68;4.43;;;14.70;99.90;;;;;;5016357;28;20030;-66
2021/08/01 01:18:39;;;;;;;8.57;5.35;;;14.70;99.90;;;;;;5012424;28;20033;-66
2021/08/01 01:21:11;;;;;;;7.10;5.60;;;14.70;99.90;;;;;;5033958;28;20443;-66
2021/08/01 01:23:40;;;;;;;10.32;5.30;;;14.70;99.90;;;;;;5032612;28;20029;-65
2021/08/01 01:26:14;;;;;;;8.38;5.65;;;14.70;99.90;;;;;;5039091;28;20455;-65
2021/08/01 01:29:09;;;;;;;8.85;5.40;;;14.70;99.90;;;;;;5053273;28;20025;-65
2021/08/01 01:31:49;;;;;;;8.73;5.45;;;14.60;99.90;;;;;;5027378;28;20792;-66
2021/08/01 01:34:33;;;;;;;;;;;14.60;99.90;;;;;;5052409;28;20032;-65
2021/08/01 01:37:04;;;;;;;7.25;5.28;;;14.60;99.90;;;;;;5053149;28;19909;-65
2021/08/01 01:39:32;;;;;;;14.82;6.10;;;14.60;99.90;;;;;;5051783;28;20110;-65
2021/08/01 01:41:58;;;;;;;8.07;6.00;;;14.60;99.90;;;;;;5042274;28;20065;-65
2021/08/01 01:44:25;;;;;;;11.88;5.85;;;14.60;99.90;;;;;;5032095;28;20029;-66
2021/08/01 01:46:51;;;;;;;7.88;5.72;;;14.60;99.90;;;;;;5032652;28;20026;-65
2021/08/01 01:49:17;;;;;;;11.98;6.90;;;14.60;99.90;;;;;;5032089;28;20033;-65
2021/08/01 01:51:44;;;;;;;8.98;6.22;;;14.60;99.90;;;;;;5040576;28;20611;-66
2021/08/01 01:54:10;;;;;;;12.15;6.57;;;14.50;99.90;;;;;;5042921;28;20458;-66
2021/08/01 01:56:37;;;;;;;9.75;5.90;;;14.60;99.90;;;;;;5040046;28;20056;-66
2021/08/01 01:59:03;;;;;;;11.30;6.38;;;14.60;99.90;;;;;;5032609;28;20030;-65
2021/08/01 02:01:29;;;;;;;7.30;6.13;;;14.60;99.90;;;;;;5031536;28;20478;-66
2021/08/01 02:03:55;;;;;;;9.98;7.10;;;14.60;99.90;;;;;;5032452;28;20105;-65
2021/08/01 02:06:21;;;;;;;10.82;6.97;;;14.60;99.90;;;;;;5040701;28;20037;-65
2021/08/01 02:09:14;;;;;;;7.70;6.57;;;14.60;99.90;;;;;;5047942;28;20030;-65
2021/08/01 02:12:03;;;;;;;10.70;6.82;;;14.60;99.90;;;;;;5032167;28;20037;-66
2021/08/01 02:14:42;;;;;;;9.85;7.50;;;14.50;99.90;;;;;;5031560;28;20528;-65
2021/08/01 02:17:13;;;;;;;8.20;6.97;;;14.60;99.90;;;;;;5033019;28;20479;-65
2021/08/01 02:19:41;;;;;;;9.40;6.88;;;14.50;99.90;;;;;;5051945;28;20025;-65
2021/08/01 02:22:07;;;;;;;11.63;7.80;;;14.50;99.90;;;;;;5051647;28;20036;-66
2021/08/01 02:24:35;;;;;;;10.43;7.30;;;14.50;99.90;;;;;;5051318;28;20116;-65
2021/08/01 02:27:03;;;;;;;12.52;8.20;;;14.50;99.90;;;;;;5033539;28;20036;-66
2021/08/01 02:29:30;;;;;;;13.15;7.63;;;14.50;99.90;;;;;;5035498;28;20036;-66
2021/08/01 02:31:57;;;;;;;12.75;8.15;;;14.50;99.90;;;;;;5042762;28;20022;-65
2021/08/01 02:34:25;;;;;;;10.35;7.20;;;14.50;99.90;;;;;;5030986;28;20025;-65
2021/08/01 02:36:52;;;;;;;9.73;7.78;;;14.50;99.90;;;;;;5032063;28;20386;-65
2021/08/01 02:39:20;;;;;;;12.90;8.10;;;14.50;99.90;;;;;;5044031;28;20075;-65
2021/08/01 02:41:47;;;;;;;14.65;7.82;;;14.50;99.90;;;;;;5044680;28;20053;-65
2021/08/01 02:44:20;;;;;;;20.38;9.38;;;14.50;99.90;;;;;;5030654;28;20095;-66
2021/08/01 02:46:48;;;;;;;9.98;7.50;;;14.50;99.90;;;;;;5032024;28;20033;-66
2021/08/01 02:49:21;;;;;;;11.13;8.38;;;14.40;99.90;;;;;;5031929;28;20034;-65
2021/08/01 02:51:51;;;;;;;12.80;9.40;;;14.50;99.90;;;;;;5038465;28;20029;-65
2021/08/01 02:54:17;;;;;;;;;;;14.50;99.90;;;;;;5051485;28;20049;-66
2021/08/01 02:56:44;;;;;;;12.52;8.05;;;14.50;99.90;;;;;;5051503;28;19955;-65
2021/08/01 02:59:11;;;;;;;11.15;8.38;;;14.50;99.90;;;;;;5051195;28;20025;-65
2021/08/01 03:01:38;;;;;;;13.45;8.48;;;14.50;99.90;;;;;;5046124;28;20025;-66
2021/08/01 03:04:05;;;;;;;10.82;8.55;;;14.50;99.90;;;;;;5037851;28;20029;-66
2021/08/01 03:06:34;;;;;;;8.95;7.55;;;14.50;99.90;;;;;;5050671;28;20068;-66
2021/08/01 03:09:04;;;;;;;12.73;7.68;;;14.50;99.90;;;;;;5045943;28;20495;-65
2021/08/01 03:11:34;;;;;;;9.05;7.38;;;14.50;99.90;;;;;;5034169;28;20040;-65
2021/08/01 03:14:01;;;;;;;11.35;8.13;;;14.50;99.90;;;;;;5051568;28;20053;-65
2021/08/01 03:16:27;;;;;;;11.85;8.48;;;14.40;99.90;;;;;;5041376;28;20033;-66
2021/08/01 03:18:53;;;;;;;13.82;8.48;;;14.40;99.90;;;;;;5031832;28;20029;-66
2021/08/01 03:21:18;;;;;;;13.55;8.85;;;14.40;99.90;;;;;;5032140;28;20033;-65
2021/08/01 03:23:44;;;;;;;14.52;8.80;;;14.50;99.90;;;;;;5051111;28;20378;-66
2021/08/01 03:26:10;;;;;;;11.43;8.15;;;14.40;99.90;;;;;;5047467;28;20064;-66
2021/08/01 03:28:36;;;;;;;9.93;8.65;;;14.40;99.90;;;;;;5038500;28;20072;-65
2021/08/01 03:31:01;;;;;;;9.40;8.35;;;14.40;99.90;;;;;;5051558;28;20032;-65
2021/08/01 03:33:27;;;;;;;11.98;7.97;;;14.50;99.90;;;;;;5050253;28;20033;-66
2021/08/01 03:35:52;;;;;;;11.35;8.93;;;14.40;99.90;;;;;;5050951;28;20091;-65
2021/08/01 03:38:18;;;;;;;10.75;8.18;;;14.50;99.90;;;;;;5047150;28;20123;-65
2021/08/01 03:40:44;;;;;;;11.60;8.38;;;14.40;99.90;;;;;;5011891;28;20100;-65
2021/08/01 03:43:10;;;;;;;12.57;8.18;;;14.40;99.90;;;;;;5029955;28;20088;-65
2021/08/01 03:45:35;;;;;;;12.07;9.05;;;14.40;99.90;;;;;;5036151;28;20117;-66
2021/08/01 03:48:01;;;;;;;11.82;8.68;;;14.40;99.90;;;;;;5031367;28;20030;-65
2021/08/01 03:50:26;;;;;;;12.45;8.23;;;14.40;99.90;;;;;;5030468;28;20101;-66
2021/08/01 03:52:52;;;;;;;12.20;8.30;;;14.40;99.90;;;;;;5033406;28;20022;-66
2021/08/01 03:55:18;;;;;;;13.85;9.05;;;14.40;99.90;;;;;;5030924;28;20351;-66
2021/08/01 03:57:43;;;;;;;9.85;8.63;;;14.40;99.90;;;;;;5031062;28;20440;-66
2021/08/01 04:00:09;;;;;;;10.18;8.43;;;14.40;99.90;;;;;;5031332;28;20494;-65
2021/08/01 04:02:38;;;;;;;14.10;8.00;;;14.40;99.90;;;;;;5030589;28;20038;-65
2021/08/01 04:05:05;;;;;;;12.15;8.15;;;14.40;99.90;;;;;;5035891;28;20483;-65
2021/08/01 04:07:31;;;;;;;11.20;8.20;;;14.30;99.90;;;;;;5049987;28;20037;-66
2021/08/01 04:09:57;;;;;;;12.20;8.35;;;14.30;99.90;;;;;;5037686;28;20084;-65
2021/08/01 04:12:23;;;;;;;12.65;8.60;;;14.30;99.90;;;;;;5033799;28;20057;-65
2021/08/01 04:14:49;;;;;;;11.38;8.80;;;14.30;99.90;;;;;;5040232;28;20056;-65
2021/08/01 04:17:18;;;;;;;14.40;9.52;;;14.30;99.90;;;;;;5046183;28;20021;-65
2021/08/01 04:19:44;;;;;;;14.27;9.95;;;14.30;99.90;;;;;;5033966;28;20426;-66
2021/08/01 04:22:10;;;;;;;15.02;8.65;;;14.30;99.90;;;;;;5034376;28;20033;-65
2021/08/01 04:24:36;;;;;;;10.38;8.40;;;14.30;99.90;;;;;;5033879;28;20374;-66
2021/08/01 04:27:01;;;;;;;9.10;7.82;;;14.30;99.90;;;;;;5039514;28;20110;-65
2021/08/01 04:29:27;;;;;;;12.07;9.32;;;14.30;99.90;;;;;;5041646;28;20036;-66
2021/08/01 04:31:53;;;;;;;11.63;8.75;;;14.30;99.90;;;;;;5034405;28;20036;-65
2021/08/01 04:34:18;;;;;;;11.43;8.50;;;14.30;99.90;;;;;;5020255;28;20033;-65
2021/08/01 04:36:44;;;;;;;10.80;8.73;;;14.30;99.90;;;;;;5013996;28;20028;-65
2021/08/01 04:39:10;;;;;;;10.45;9.00;;;14.30;99.90;;;;;;5029101;28;20124;-65
2021/08/01 04:41:35;;;;;;;12.70;8.57;;;14.30;99.90;;;;;;5033425;28;20038;-65
2021/08/01 04:44:01;;;;;;;11.48;8.82;;;14.30;99.90;;;;;;5034178;28;20021;-65
2021/08/01 04:46:27;;;;;;;10.63;8.52;;;14.30;99.90;;;;;;5033466;28;20035;-65
2021/08/01 04:48:52;;;;;;;11.18;8.90;;;14.30;99.90;;;;;;5053786;28;20079;-65
2021/08/01 04:51:18;;;;;;;13.23;9.00;;;14.40;99.90;;;;;;5041525;28;20026;-66
2021/08/01 04:53:44;;;;;;;9.80;8.52;;;14.40;99.90;;;;;;5033558;28;20036;-65
2021/08/01 04:56:10;;;;;;;11.35;9.50;;;14.40;99.90;;;;;;5033824;28;20483;-65
2021/08/01 04:58:36;;;;;;;11.43;8.88;;;14.40;99.90;;;;;;5034067;28;20032;-66
2021/08/01 05:01:12;;;;;;;11.70;8.65;;;14.40;99.90;;;;;;5043173;28;20463;-66
2021/08/01 05:03:37;;;;;;;10.15;8.85;;;14.40;99.90;;;;;;5053016;28;20337;-66
2021/08/01 05:06:03;;;;;;;11.90;8.55;;;14.40;99.90;;;;;;5053635;28;20029;-65
2021/08/01 05:08:29;;;;;;;9.60;8.60;;;14.40;99.90;;;;;;5051903;28;20033;-66
2021/08/01 05:10:54;;;;;;;9.27;8.30;;;14.40;99.90;;;;;;5053610;28;20090;-66
2021/08/01 05:13:20;;;;;;;10.88;8.38;;;14.40;99.90;;;;;;5042488;28;20028;-65
2021/08/01 05:15:45;;;;;;;10.70;8.13;;;14.40;99.90;;;;;;5033208;28;20060;-66
2021/08/01 05:18:11;;;;;;;9.63;7.18;;;14.50;99.90;;;;;;5044585;28;20028;-65
2021/08/01 05:20:44;;;;;;;8.52;7.45;;;14.50;99.90;;;;;;5051276;28;20387;-66
2021/08/01 05:23:10;;;;;;;10.82;8.68;;;14.50;99.90;;;;;;5052688;28;20031;-66
2021/08/01 05:25:36;;;;;;;8.30;7.50;;;14.50;99.90;;;;;;5041908;28;20061;-66
2021/08/01 05:28:02;;;;;;;11.38;8.02;;;14.50;99.90;;;;;;5033247;28;20040;-66
2021/08/01 05:30:28;;;;;;;8.30;7.28;;;14.50;99.90;;;;;;5050275;28;20028;-66
2021/08/01 05:32:54;;;;;;;8.80;7.30;;;14.60;99.90;;;;;;5053184;28;20025;-66
2021/08/01 05:35:20;;;;;;;8.48;6.95;;;14.60;99.90;;;;;;5053098;28;20037;-67
2021/08/01 05:37:45;;;;;;;8.75;7.03;;;14.60;99.90;;;;;;5040849;28;20041;-65
2021/08/01 05:40:11;;;;;;;9.43;6.88;;;14.60;99.90;;;;;;5051298;28;20039;-66
2021/08/01 05:42:38;;;;;;;8.73;6.80;;;14.70;99.90;;;;;;5052118;28;20120;-65
2021/08/01 05:45:07;;;;;;;8.98;7.05;;;14.70;99.90;;;;;;5052571;28;20492;-66
2021/08/01 05:47:36;;;;;;;9.85;6.68;;;14.70;99.90;;;;;;5052223;28;20212;-66
2021/08/01 05:50:02;;;;;;;9.60;7.30;;;14.70;99.90;;;;;;5036718;28;20101;-65
2021/08/01 05:52:28;;;;;;;8.48;7.25;;;14.70;99.90;;;;;;5042499;28;20063;-65
2021/08/01 05:54:53;;;;;;;9.05;6.97;;;14.80;99.90;;;;;;5052434;28;20060;-65
2021/08/01 05:57:19;;;;;;;12.32;8.10;;;14.80;99.90;;;;;;5052320;28;20053;-66
2021/08/01 05:59:45;;;;;;;8.88;7.88;;;14.80;99.90;;;;;;5049183;28;20033;-66
2021/08/01 06:02:11;;;;;;;11.00;6.65;;;14.90;99.90;;;;;;5051386;28;20378;-66
2021/08/01 06:04:38;;;;;;;8.57;6.75;;;14.90;99.90;;;;;;5041121;28;20379;-66
2021/08/01 06:07:03;;;;;;;8.25;6.75;;;14.90;99.90;;;;;;5030494;28;20177;-65
2021/08/01 06:09:29;;;;;;;7.82;6.95;;;15.00;99.90;;;;;;5031872;28;20037;-65
2021/08/01 06:11:55;;;;;;;7.95;6.20;;;15.00;99.90;;;;;;5035972;28;20462;-65
2021/08/01 06:14:21;;;;;;;8.80;6.00;;;15.00;99.90;;;;;;5042914;28;20390;-66
2021/08/01 06:16:46;;;;;;;7.10;5.82;;;15.00;99.90;;;;;;5051513;28;20040;-66
2021/08/01 06:19:12;;;;;;;6.95;5.93;;;15.10;99.90;;;;;;5042793;28;20025;-66
2021/08/01 06:21:38;;;;;;;7.75;6.03;;;15.10;99.90;;;;;;5030811;28;20026;-66
2021/08/01 06:24:04;;;;;;;9.25;6.60;;;15.10;99.90;;;;;;5040911;28;20033;-65
2021/08/01 06:26:29;;;;;;;9.23;6.40;;;15.10;99.90;;;;;;5051310;28;20078;-65
2021/08/01 06:28:56;;;;;;;8.90;6.20;;;15.20;99.90;;;;;;5051729;28;20021;-65
2021/08/01 06:31:22;;;;;;;8.80;6.65;;;15.20;99.90;;;;;;5051587;28;20021;-66
2021/08/01 06:33:47;;;;;;;7.55;6.18;;;15.20;99.90;;;;;;5050730;28;20127;-66
2021/08/01 06:36:15;;;;;;;8.57;5.13;;;15.30;99.90;;;;;;5037725;28;20478;-65
2021/08/01 06:38:43;;;;;;;8.05;5.80;;;15.30;99.90;;;;;;5030191;28;20049;-66
2021/08/01 06:41:09;;;;;;;6.63;5.57;;;15.40;99.90;;;;;;5031429;28;20033;-65
2021/08/01 06:43:35;;;;;;;11.80;5.85;;;15.40;99.90;;;;;;5031193;28;20026;-65
2021/08/01 06:46:01;;;;;;;6.68;5.32;;;15.40;99.90;;;;;;5031804;28;20468;-65
2021/08/01 06:48:28;;;;;;;7.00;5.57;;;15.50;99.90;;;;;;5047851;28;20059;-66
2021/08/01 06:50:53;;;;;;;9.40;6.05;;;15.50;99.90;;;;;;5050858;28;20041;-65
2021/08/01 06:53:19;;;;;;;10.10;5.53;;;15.60;99.90;;;;;;5051430;28;20477;-65
2021/08/01 06:55:45;;;;;;;8.90;5.20;;;15.60;99.90;;;;;;5050739;28;20179;-65
2021/08/01 06:58:11;;;;;;;5.88;5.22;;;15.60;99.90;;;;;;5036814;28;20037;-66
2021/08/01 07:00:36;;;;;;;9.05;5.07;;;15.70;99.90;;;;;;5051580;28;20036;-66
2021/08/01 07:03:03;;;;;;;6.22;5.00;;;15.70;99.90;;;;;;5051389;28;20029;-65
2021/08/01 07:05:30;;;;;;;10.13;4.75;;;15.80;99.90;;;;;;5050362;28;20453;-66
2021/08/01 07:07:56;;;;;;;6.93;4.32;;;15.90;99.90;;;;;;5051472;28;20386;-66
2021/08/01 07:10:23;;;;;;;7.43;5.65;;;16.00;99.90;;;;;;5032883;28;20033;-66
2021/08/01 07:12:49;;;;;;;6.10;5.50;;;16.00;99.90;;;;;;5032149;28;20065;-65
2021/08/01 07:15:17;;;;;;;8.90;5.25;;;16.10;99.90;;;;;;5031703;28;20467;-66
2021/08/01 07:17:43;;;;;;;6.93;5.50;;;16.10;99.90;;;;;;5038352;28;20185;-66
2021/08/01 07:20:10;;;;;;;6.30;4.88;;;16.00;99.90;;;;;;5033947;28;21035;-65
2021/08/01 07:22:36;;;;;;;9.82;5.55;;;16.00;99.90;;;;;;5051636;28;20025;-66
2021/08/01 07:25:03;;;;;;;9.15;6.78;;;15.90;99.90;;;;;;5051669;28;20037;-65
2021/08/01 07:27:29;;;;;;;7.13;5.72;;;15.90;99.90;;;;;;5050447;28;20033;-64
2021/08/01 07:29:55;;;;;;;9.10;5.68;;;15.90;99.90;;;;;;5045139;28;20074;-64
2021/08/01 07:32:20;;;;;;;7.13;5.38;;;16.00;99.90;;;;;;5046635;28;20387;-64
2021/08/01 07:34:47;;;;;;;6.63;5.43;;;16.00;99.90;;;;;;5037349;28;20108;-65
2021/08/01 07:37:14;;;;;;;7.85;5.85;;;16.00;99.90;;;;;;5051146;28;20037;-65
2021/08/01 07:39:39;;;;;;;7.93;6.22;;;15.90;99.90;;;;;;5050232;28;20053;-64
2021/08/01 07:42:05;;;;;;;9.88;5.53;;;15.80;99.90;;;;;;5046813;28;20489;-64
2021/08/01 07:44:35;;;;;;;8.90;5.70;;;15.80;99.90;;;;;;5017677;28;20518;-65
2021/08/01 07:47:01;;;;;;;6.75;5.32;;;15.70;99.90;;;;;;5028159;28;20038;-65
2021/08/01 07:49:27;;;;;;;8.70;5.70;;;15.70;99.90;;;;;;5014900;28;20387;-64
2021/08/01 07:51:52;;;;;;;7.97;6.00;;;15.70;99.90;;;;;;5020831;28;20021;-65
2021/08/01 07:54:18;;;;;;;7.72;6.38;;;15.60;99.90;;;;;;5034837;28;20489;-65
2021/08/01 07:56:43;;;;;;;8.70;6.70;;;15.60;99.90;;;;;;5030209;28;20037;-64
2021/08/01 07:59:09;;;;;;;9.77;6.40;;;15.50;99.90;;;;;;5054709;28;20028;-65
2021/08/01 08:01:35;;;;;;;8.45;5.78;;;15.50;99.90;;;;;;5040546;28;20026;-65
2021/08/01 08:04:00;;;;;;;12.80;5.25;;;15.40;99.90;;;;;;5035829;28;20320;-65
2021/08/01 08:06:26;;;;;;;6.85;5.28;;;15.30;99.90;;;;;;5053976;28;20078;-67
2021/08/01 08:08:51;;;;;;;8.70;5.40;;;15.20;99.90;;;;;;5045234;28;20041;-67
2021/08/01 08:11:17;;;;;;;7.82;5.70;;;15.20;99.90;;;;;;5034257;28;20037;-67
2021/08/01 08:13:43;;;;;;;10.63;5.28;;;15.20;99.90;;;;;;5053181;28;20107;-67
2021/08/01 08:16:08;;;;;;;8.23;5.38;;;15.20;99.90;;;;;;5054629;28;20040;-67
2021/08/01 08:18:34;;;;;;;7.60;5.80;;;15.20;99.90;;;;;;5054039;28;20021;-67
2021/08/01 08:21:00;;;;;;;6.47;5.55;;;15.30;99.90;;;;;;5045018;28;20419;-67
2021/08/01 08:23:26;;;;;;;5.95;4.97;;;15.30;99.90;;;;;;5034059;28;20522;-68
2021/08/01 08:25:52;;;;;;;8.57;5.20;;;15.40;99.90;;;;;;5033802;28;20109;-67
2021/08/01 08:28:18;;;;;;;12.48;4.50;;;15.50;99.90;;;;;;5036888;28;20395;-67
2021/08/01 08:30:43;;;;;;;6.60;4.32;;;15.50;99.90;;;;;;5046204;28;20029;-67
2021/08/01 08:33:10;;;;;;;7.00;5.20;;;15.60;99.90;;;;;;5040359;28;20021;-67
2021/08/01 08:35:36;;;;;;;9.02;5.50;;;15.60;99.90;;;;;;5046800;28;20029;-68
2021/08/01 08:38:02;;;;;;;7.78;4.75;;;15.70;99.90;;;;;;5053615;28;20144;-67
2021/08/01 08:40:28;;;;;;;8.63;4.85;;;15.80;99.90;;;;;;5053494;28;20029;-68
2021/08/01 08:42:54;;;;;;;8.57;4.95;;;15.80;99.90;;;;;;5051481;28;20029;-67
2021/08/01 08:45:20;;;;;;;6.90;4.13;;;15.90;99.90;;;;;;5053451;28;20493;-67
2021/08/01 08:47:48;;;;;;;9.82;4.85;;;16.10;99.90;;;;;;5053000;28;20485;-67
2021/08/01 08:50:17;;;;;;;5.80;3.95;;;16.10;99.90;;;;;;5053938;28;20025;-67
2021/08/01 08:52:46;;;;;;;7.43;3.58;;;16.30;99.90;;;;;;5040563;28;20049;-67
2021/08/01 08:55:13;;;;;;;5.00;4.27;;;16.40;99.90;;;;;;5033851;28;20029;-67
2021/08/01 08:57:43;;;;;;;5.30;3.50;;;16.40;99.90;;;;;;5031973;28;20265;-67
2021/08/01 09:00:11;;;;;;;5.82;3.88;;;16.50;99.90;;;;;;5033219;28;20475;-67
2021/08/01 09:02:38;;;;;;;4.50;4.10;;;16.60;99.90;;;;;;5034246;28;20416;-67
2021/08/01 09:05:06;;;;;;;9.00;4.53;;;16.70;99.90;;;;;;5042501;28;20033;-67
2021/08/01 09:07:33;;;;;;;6.82;3.60;;;16.80;99.90;;;;;;5052405;28;20108;-68
2021/08/01 09:09:58;;;;;;;5.40;3.65;;;16.80;99.90;;;;;;5040375;28;20463;-67
2021/08/01 09:12:24;;;;;;;4.65;3.30;;;16.90;99.90;;;;;;5033286;28;20034;-67
2021/08/01 09:15:18;;;;;;;4.65;3.30;;;17.00;99.90;;;;;;5043257;28;20094;-67
2021/08/01 09:17:45;;;;;;;5.90;3.83;;;17.10;99.90;;;;;;5052445;28;20063;-67
2021/08/01 09:20:15;;;;;;;5.03;3.63;;;17.20;99.90;;;;;;5053122;28;20099;-67
2021/08/01 09:22:41;;;;;;;6.40;3.92;;;17.40;99.90;;;;;;5051687;28;20484;-67
2021/08/01 09:25:18;;;;;;;5.97;3.50;;;17.40;99.90;;;;;;5052971;28;20029;-67
2021/08/01 09:27:44;;;;;;;4.45;3.42;;;17.50;99.90;;;;;;5037195;28;20086;-67
2021/08/01 09:30:10;;;;;;;5.72;3.33;;;17.50;99.90;;;;;;5052744;28;20087;-67
2021/08/01 09:32:47;;;;;;;4.90;3.47;;;17.60;99.90;;;;;;5035105;28;20044;-67
2021/08/01 09:35:20;;;;;;;3.67;3.10;;;17.60;99.90;;;;;;5043423;28;20082;-67
2021/08/01 09:37:57;;;;;;;6.70;3.63;;;17.60;99.90;;;;;;5044859;28;20450;-67
2021/08/01 09:40:28;;;;;;;6.03;3.40;;;17.70;99.90;;;;;;5032965;28;20109;-67
2021/08/01 09:43:04;;;;;;;5.32;4.10;;;17.70;99.90;;;;;;5049576;28;20025;-67
2021/08/01 09:45:29;;;;;;;5.10;3.70;;;17.70;99.90;;;;;;5052382;28;20169;-68
2021/08/01 09:48:14;;;;;;;5.07;3.85;;;17.70;99.90;;;;;;5050827;28;20025;-67
2021/08/01 09:50:58;;;;;;;5.95;4.03;;;17.60;99.90;;;;;;5037649;28;20033;-67
2021/08/01 09:53:24;;;;;;;6.85;3.65;;;17.70;99.90;;;;;;5032652;28;20040;-67
2021/08/01 09:56:11;;;;;;;8.38;3.60;;;17.70;99.90;;;;;;5036879;28;20025;-67
2021/08/01 09:58:37;;;;;;;3.50;3.20;;;17.70;99.90;;;;;;5048435;28;20060;-67
2021/08/01 10:01:04;;;;;;;4.18;2.95;;;17.60;99.90;;;;;;5034256;28;20379;-67
2021/08/01 10:03:41;;;;;;;5.30;3.15;;;17.50;99.90;;;;;;5052021;28;20033;-67
2021/08/01 10:06:11;;;;;;;4.38;2.90;;;17.50;99.90;;;;;;5052279;28;20032;-68
2021/08/01 10:08:41;;;;;;;3.92;3.33;;;17.50;99.90;;;;;;5047287;28;20422;-68
2021/08/01 10:11:32;;;;;;;2.88;2.67;;;17.60;99.90;;;;;;5034362;28;20083;-68
2021/08/01 10:14:00;;;;;;;5.25;3.38;;;17.60;99.90;;;;;;5051534;28;20044;-68
2021/08/01 10:16:26;;;;;;;5.18;3.17;;;17.70;99.90;;;;;;5050295;28;20029;-68
2021/08/01 10:18:52;;;;;;;3.08;2.83;;;17.80;99.90;;;;;;5050902;28;20036;-68
2021/08/01 10:21:22;;;;;;;6.20;3.88;;;17.80;99.90;;;;;;5051538;28;20025;-68
2021/08/01 10:23:56;;;;;;;4.13;3.00;;;18.00;99.90;;;;;;5042860;28;20041;-68
2021/08/01 10:26:26;;;;;;;3.03;2.72;;;18.20;99.90;;;;;;5032135;28;20083;-68
2021/08/01 10:28:54;;;;;;;4.70;2.55;;;18.50;99.90;;;;;;5030958;28;20040;-68
2021/08/01 10:31:33;;;;;;;3.47;2.83;;;18.80;99.90;;;;;;5031786;28;20119;-68
2021/08/01 10:34:15;;;;;;;5.82;2.75;;;19.10;99.90;;;;;;5032174;28;20025;-68
2021/08/01 10:36:47;;;;;;;3.15;2.45;;;19.30;99.90;;;;;;5037568;28;20045;-68
2021/08/01 10:39:14;;;;;;;4.22;2.58;;;19.50;99.90;;;;;;5011616;28;20073;-68
2021/08/01 10:41:40;;;;;;;3.20;2.70;;;19.70;99.90;;;;;;5011337;28;20030;-68
2021/08/01 10:44:11;;;;;;;3.83;2.60;;;19.80;99.90;;;;;;5010810;28;20357;-68
2021/08/01 10:46:37;;;;;;;;;;;19.90;99.90;;;;;;5023865;28;20044;-68
2021/08/01 10:49:04;;;;;;;2.72;2.33;;;20.00;99.90;;;;;;5031218;28;20460;-68
2021/08/01 10:51:30;;;;;;;3.80;2.20;;;20.00;99.90;;;;;;5031688;28;20025;-68
2021/08/01 10:54:21;;;;;;;5.40;2.30;;;20.10;99.90;;;;;;5030766;28;20113;-68
2021/08/01 10:56:47;;;;;;;2.35;2.15;;;20.20;99.90;;;;;;5030838;28;20025;-68
2021/08/01 10:59:44;;;;;;;3.38;2.20;;;20.40;99.90;;;;;;5031325;28;20534;-68
2021/08/01 11:02:15;;;;;;;4.53;2.05;;;20.40;99.90;;;;;;5031460;28;20029;-68
2021/08/01 11:04:43;;;;;;;4.50;2.53;;;20.30;99.90;;;;;;5036833;28;20025;-68
2021/08/01 11:07:09;;;;;;;3.63;2.25;;;20.50;99.90;;;;;;5014446;28;20037;-68
2021/08/01 11:09:35;;;;;;;4.18;2.20;;;20.60;99.90;;;;;;5016961;28;20034;-68
2021/08/01 11:12:19;;;;;;;2.78;2.22;;;20.70;99.90;;;;;;5045525;28;20029;-68
2021/08/01 11:14:50;;;;;;;4.82;2.67;;;20.80;99.90;;;;;;5050668;28;20361;-68
2021/08/01 11:17:20;;;;;;;2.78;2.30;;;20.80;99.90;;;;;;5048845;28;20025;-68
2021/08/01 11:19:47;;;;;;;3.80;2.30;;;20.80;99.90;;;;;;5049725;28;20186;-68
2021/08/01 11:22:38;;;;;;;3.95;2.13;;;20.90;99.90;;;;;;5047653;28;20025;-67
2021/08/01 11:25:32;;;;;;;5.18;2.42;;;21.00;99.90;;;;;;5035310;28;20033;-68
2021/08/01 11:28:10;;;;;;;5.25;2.70;;;21.10;98.90;;;;;;5034715;28;20041;-68
2021/08/01 11:30:53;;;;;;;2.63;2.00;;;21.20;99.10;;;;;;5034942;28;20025;-68
2021/08/01 11:33:32;;;;;;;4.90;2.40;;;21.30;99.30;;;;;;5035760;28;20032;-68
2021/08/01 11:36:16;;;;;;;3.42;2.50;;;21.50;97.30;;;;;;5052835;28;20604;-68
2021/08/01 11:38:54;;;;;;;5.97;2.30;;;21.50;97.20;;;;;;5053810;28;20052;-68
2021/08/01 11:41:40;;;;;;;3.53;2.50;;;21.60;96.60;;;;;;5047691;28;20379;-68
2021/08/01 11:44:24;;;;;;;5.50;2.70;;;21.80;95.70;;;;;;5035358;28;20375;-68
2021/08/01 11:46:58;;;;;;;3.80;2.60;;;21.80;95.90;;;;;;5049786;28;20028;-68
2021/08/01 11:49:24;;;;;;;4.75;2.92;;;21.80;94.20;;;;;;5038935;28;20033;-68
2021/08/01 11:51:51;;;;;;;4.65;2.58;;;22.00;95.00;;;;;;5034322;28;20032;-68
2021/08/01 11:54:18;;;;;;;4.93;3.08;;;22.10;94.10;;;;;;5034621;28;20446;-68
2021/08/01 11:56:44;;;;;;;6.07;4.00;;;22.10;93.80;;;;;;5037719;28;20108;-68
2021/08/01 11:59:15;;;;;;;5.25;3.20;;;22.20;93.20;;;;;;5045259;28;20371;-68
2021/08/01 12:01:41;;;;;;;5.47;3.05;;;22.10;92.70;;;;;;5051977;28;20059;-68
2021/08/01 12:04:08;;;;;;;5.28;2.80;;;22.10;93.20;;;;;;5053933;28;20363;-68
2021/08/01 12:06:38;;;;;;;4.88;2.80;;;22.00;93.20;;;;;;5054357;28;20037;-68
2021/08/01 12:09:24;;;;;;;6.78;2.35;;;22.00;93.50;;;;;;5037811;28;20079;-68
2021/08/01 12:11:56;;;;;;;5.30;4.15;;;21.90;93.80;;;;;;5033895;28;20040;-68
2021/08/01 12:14:29;;;;;;;4.85;3.13;;;21.80;93.70;;;;;;5046776;28;20116;-67
2021/08/01 12:17:07;;;;;;;3.53;2.70;;;21.60;93.80;;;;;;5053268;28;20036;-68
2021/08/01 12:19:40;;;;;;;2.80;2.47;;;21.40;93.30;;;;;;5034540;28;20037;-67
2021/08/01 12:22:18;;;;;;;3.22;2.90;;;21.30;94.20;;;;;;5034507;28;20079;-68
2021/08/01 12:24:52;;;;;;;6.35;3.60;;;21.10;94.40;;;;;;5033497;28;20034;-68
2021/08/01 12:27:47;;;;;;;5.47;3.08;;;20.90;94.70;;;;;;5034413;28;20041;-68
2021/08/01 12:30:20;;;;;;;6.63;3.05;;;20.70;95.50;;;;;;5043094;28;20040;-68
2021/08/01 12:32:52;;;;;;;4.65;3.13;;;20.60;96.60;;;;;;5052174;28;20025;-68
2021/08/01 12:35:22;;;;;;;6.55;3.22;;;20.50;96.60;;;;;;5054105;28;20028;-67
2021/08/01 12:37:57;;;;;;;3.22;2.55;;;20.40;96.80;;;;;;5052720;28;20021;-68
2021/08/01 12:40:34;;;;;;;6.30;3.42;;;20.40;97.80;;;;;;5054124;28;20029;-67
2021/08/01 12:43:03;;;;;;;4.75;3.30;;;20.50;97.50;;;;;;5034261;28;20318;-68
2021/08/01 12:45:40;;;;;;;5.78;3.40;;;20.70;97.90;;;;;;5033671;28;20410;-68
2021/08/01 12:48:08;;;;;;;3.90;2.40;;;21.10;97.50;;;;;;5033595;28;20037;-67
2021/08/01 12:50:36;;;;;;;5.68;2.58;;;21.60;96.50;;;;;;5034175;28;20041;-67
2021/08/01 12:53:03;;;;;;;5.32;2.20;;;22.40;94.60;;;;;;5035874;28;20039;-67
2021/08/01 12:55:30;;;;;;;4.35;1.90;;;23.20;91.60;;;;;;5033624;28;20470;-67